createdAt,value
2019-04-23T00:01:41.870Z,7.10
2019-04-23T00:04:11.469Z,6.50
2019-04-23T00:06:51.972Z,7.50
2019-04-23T00:09:19.881Z,6.23
2019-04-23T00:11:45.883Z,8.30
2019-04-23T00:14:20.720Z,8.00
2019-04-23T00:16:44.011Z,6.60
2019-04-23T00:19:16.913Z,8.20
2019-04-23T00:22:00.310Z,8.33
2019-04-23T00:25:11.746Z,7.37
2019-04-23T00:29:53.805Z,7.83
2019-04-23T00:32:23.148Z,9.98
2019-04-23T00:35:00.764Z,7.70
2019-04-23T00:37:25.472Z,8.07
2019-04-23T00:39:52.816Z,8.00
2019-04-23T00:42:25.737Z,7.30
2019-04-23T00:47:23.638Z,7.73
2019-04-23T00:49:51.600Z,8.27
2019-04-23T00:52:20.676Z,8.67
2019-04-23T00:54:50.483Z,7.83
2019-04-23T00:57:24.497Z,7.20
2019-04-23T00:59:53.725Z,8.90
2019-04-23T01:02:18.062Z,8.63
2019-04-23T01:04:47.727Z,8.03
2019-04-23T01:07:18.892Z,8.30
2019-04-23T01:09:56.083Z,8.10
2019-04-23T01:12:31.459Z,8.20
2019-04-23T01:14:56.331Z,9.23
2019-04-23T01:17:35.122Z,9.80
2019-04-23T01:20:02.694Z,8.30
2019-04-23T01:22:10.624Z,8.30
2019-04-23T01:24:52.272Z,8.80
2019-04-23T01:27:52.791Z,7.63
2019-04-23T01:30:15.860Z,8.30
2019-04-23T01:32:41.059Z,9.43
2019-04-23T01:35:26.423Z,8.70
2019-04-23T01:37:58.104Z,8.77
2019-04-23T01:40:19.169Z,8.53
2019-04-23T01:42:43.943Z,9.07
2019-04-23T01:45:20.020Z,7.90
2019-04-23T01:47:50.280Z,9.90
2019-04-23T01:50:20.193Z,8.13
2019-04-23T01:52:53.932Z,9.60
2019-04-23T01:55:21.226Z,8.50
2019-04-23T01:57:58.542Z,9.17
2019-04-23T02:00:24.126Z,8.47
2019-04-23T02:05:22.905Z,9.30
2019-04-23T02:07:55.008Z,8.77
2019-04-23T02:10:32.863Z,9.43
2019-04-23T02:12:56.882Z,8.57
2019-04-23T02:15:23.008Z,9.10
2019-04-23T02:17:52.170Z,8.13
2019-04-23T02:20:25.886Z,8.93
2019-04-23T02:23:16.578Z,10.17
2019-04-23T02:28:19.084Z,10.27
2019-04-23T02:30:57.849Z,9.90
2019-04-23T02:33:19.605Z,9.57
2019-04-23T02:35:52.763Z,10.00
2019-04-23T02:38:44.335Z,10.13
2019-04-23T02:43:12.602Z,9.20
2019-04-23T02:45:48.481Z,9.77
2019-04-23T02:48:19.064Z,8.70
2019-04-23T02:53:25.692Z,8.67
2019-04-23T02:58:19.107Z,9.83
2019-04-23T03:01:06.860Z,8.03
2019-04-23T03:03:28.182Z,8.83
2019-04-23T03:05:49.267Z,9.10
2019-04-23T03:08:26.990Z,10.27
2019-04-23T03:11:01.332Z,8.83
2019-04-23T03:13:29.324Z,8.37
2019-04-23T03:16:40.155Z,9.30
2019-04-23T03:19:47.677Z,9.27
2019-04-23T03:22:15.751Z,8.17
2019-04-23T03:30:37.201Z,8.67
2019-04-23T03:34:06.097Z,7.93
2019-04-23T03:35:10.594Z,9.13
2019-04-23T03:40:08.936Z,9.23
2019-04-23T03:42:42.377Z,9.50
2019-04-23T03:45:17.310Z,9.10
2019-04-23T03:55:10.299Z,10.23
2019-04-23T04:00:24.750Z,9.63
2019-04-23T04:02:52.817Z,9.13
2019-04-23T04:05:14.419Z,10.37
2019-04-23T04:10:10.784Z,8.70
2019-04-23T04:15:18.557Z,9.10
2019-04-23T04:17:29.411Z,8.33
2019-04-23T04:20:22.313Z,8.37
2019-04-23T04:22:56.314Z,8.63
2019-04-23T04:25:15.830Z,9.90
2019-04-23T04:30:17.950Z,8.83
2019-04-23T04:32:46.914Z,9.10
2019-04-23T04:42:44.682Z,9.67
2019-04-23T04:45:20.506Z,9.00
2019-04-23T04:50:06.502Z,8.43
2019-04-23T04:52:47.118Z,7.50
2019-04-23T04:55:14.062Z,8.83
2019-04-23T04:57:39.957Z,9.50
2019-04-23T05:03:18.063Z,8.50
2019-04-23T05:05:37.616Z,8.17
2019-04-23T05:15:09.874Z,8.83
2019-04-23T05:17:59.904Z,7.90
2019-04-23T05:23:02.541Z,9.97
2019-04-23T05:25:17.212Z,8.60
2019-04-23T05:30:29.186Z,10.17
2019-04-23T05:32:54.423Z,9.23
2019-04-23T05:35:42.511Z,9.20
2019-04-23T05:40:30.631Z,9.13
2019-04-23T05:42:55.045Z,9.23
2019-04-23T05:45:21.837Z,9.10
2019-04-23T05:47:58.647Z,9.50
2019-04-23T05:50:30.484Z,9.83
2019-04-23T05:52:57.748Z,8.33
2019-04-23T05:55:18.768Z,8.97
2019-04-23T05:57:59.258Z,8.43
2019-04-23T06:00:26.149Z,8.07
2019-04-23T06:02:57.162Z,9.67
2019-04-23T06:05:27.863Z,9.03
2019-04-23T06:07:54.600Z,9.23
2019-04-23T06:10:27.326Z,8.47
2019-04-23T06:12:52.201Z,11.25
2019-04-23T06:15:26.709Z,10.27
2019-04-23T06:17:55.895Z,9.03
2019-04-23T06:20:31.612Z,9.50
2019-04-23T06:22:56.032Z,9.47
2019-04-23T06:25:39.944Z,9.50
2019-04-23T06:28:00.072Z,8.83
2019-04-23T06:30:33.214Z,10.00
2019-04-23T06:32:51.560Z,9.87
2019-04-23T06:35:24.178Z,9.50
2019-04-23T06:38:20.247Z,8.90
2019-04-23T06:40:23.632Z,9.37
2019-04-23T06:43:04.777Z,11.00
2019-04-23T06:45:33.873Z,9.93
2019-04-23T06:48:01.701Z,9.23
2019-04-23T06:50:36.704Z,9.27
2019-04-23T06:52:55.821Z,8.80
2019-04-23T06:58:04.824Z,10.03
2019-04-23T07:00:34.151Z,9.83
2019-04-23T07:03:09.167Z,10.37
2019-04-23T07:06:13.932Z,11.83
2019-04-23T07:08:44.609Z,8.63
2019-04-23T07:11:08.114Z,9.43
2019-04-23T07:13:40.062Z,10.43
2019-04-23T07:16:00.051Z,9.73
2019-04-23T07:18:31.205Z,10.60
2019-04-23T07:21:06.549Z,9.23
2019-04-23T07:23:41.660Z,8.90
2019-04-23T07:26:07.588Z,9.70
2019-04-23T07:28:39.145Z,9.23
2019-04-23T07:31:07.416Z,10.50
2019-04-23T07:33:41.721Z,9.03
2019-04-23T07:36:11.399Z,9.13
2019-04-23T07:38:54.629Z,8.07
2019-04-23T07:41:47.860Z,10.03
2019-04-23T07:47:42.275Z,8.90
2019-04-23T07:50:09.865Z,10.17
2019-04-23T07:52:33.826Z,8.60
2019-04-23T07:55:09.722Z,10.53
2019-04-23T07:57:49.574Z,9.93
2019-04-23T08:00:00.483Z,8.43
2019-04-23T08:02:31.650Z,10.37
2019-04-23T08:05:11.707Z,9.50
2019-04-23T08:07:41.036Z,11.37
2019-04-23T08:10:02.365Z,11.28
2019-04-23T08:12:31.562Z,10.90
2019-04-23T08:15:09.427Z,10.77
2019-04-23T08:17:31.321Z,9.80
2019-04-23T08:20:08.075Z,9.97
2019-04-23T08:22:36.952Z,9.00
2019-04-23T08:25:26.018Z,10.27
2019-04-23T08:28:10.003Z,10.40
2019-04-23T08:30:33.420Z,11.57
2019-04-23T08:33:03.688Z,9.73
2019-04-23T08:35:41.675Z,13.03
2019-04-23T08:40:36.898Z,9.57
2019-04-23T08:43:35.008Z,10.70
2019-04-23T08:45:52.834Z,11.10
2019-04-23T08:48:27.903Z,10.20
2019-04-23T08:51:08.140Z,11.10
2019-04-23T08:53:35.392Z,10.03
2019-04-23T08:55:49.478Z,9.33
2019-04-23T09:01:05.527Z,9.50
2019-04-23T09:03:30.091Z,9.37
2019-04-23T09:06:02.508Z,10.13
2019-04-23T09:11:30.472Z,9.63
2019-04-23T09:13:50.193Z,10.13
2019-04-23T09:16:02.816Z,11.13
2019-04-23T09:18:27.814Z,10.73
2019-04-23T09:20:54.758Z,11.37
2019-04-23T09:23:46.804Z,10.67
2019-04-23T09:25:57.561Z,9.83
2019-04-23T09:28:41.349Z,11.93
2019-04-23T09:31:27.955Z,9.43
2019-04-23T09:36:45.314Z,10.53
2019-04-23T09:39:25.474Z,10.10
2019-04-23T09:42:05.730Z,10.40
2019-04-23T09:44:57.040Z,11.53
2019-04-23T09:47:41.731Z,11.27
2019-04-23T09:50:08.964Z,9.80
2019-04-23T09:52:39.267Z,10.73
2019-04-23T09:55:15.985Z,10.23
2019-04-23T09:57:34.380Z,11.63
2019-04-23T10:00:07.574Z,11.57
2019-04-23T10:02:28.148Z,9.83
2019-04-23T10:04:56.811Z,10.27
2019-04-23T10:07:23.864Z,10.67
2019-04-23T10:09:38.468Z,10.53
2019-04-23T10:12:07.318Z,11.10
2019-04-23T10:14:36.717Z,11.33
2019-04-23T10:17:06.397Z,10.63
2019-04-23T10:19:35.126Z,10.73
2019-04-23T10:22:05.065Z,10.40
2019-04-23T10:24:34.980Z,10.43
2019-04-23T10:27:04.262Z,11.70
2019-04-23T10:29:36.349Z,12.53
2019-04-23T10:32:04.898Z,12.77
2019-04-23T10:34:44.093Z,11.47
2019-04-23T10:37:03.320Z,11.90
2019-04-23T10:39:36.954Z,11.63
2019-04-23T10:42:03.347Z,13.13
2019-04-23T10:44:41.168Z,11.83
2019-04-23T10:48:05.383Z,11.20
2019-04-23T11:00:56.657Z,12.93
2019-04-23T11:03:41.931Z,14.17
2019-04-23T11:05:59.735Z,13.23
2019-04-23T11:08:24.072Z,12.93
2019-04-23T11:10:58.961Z,14.50
2019-04-23T11:13:56.579Z,13.93
2019-04-23T11:18:54.783Z,14.43
2019-04-23T11:21:13.990Z,13.07
2019-04-23T11:23:42.534Z,13.30
2019-04-23T11:26:20.020Z,11.80
2019-04-23T11:28:37.793Z,12.33
2019-04-23T11:31:25.972Z,11.20
2019-04-23T11:33:54.372Z,13.07
2019-04-23T11:36:41.123Z,11.90
2019-04-23T11:41:21.510Z,12.50
2019-04-23T11:43:48.953Z,13.20
2019-04-23T11:46:39.778Z,12.53
2019-04-23T11:53:52.538Z,10.87
2019-04-23T11:56:35.438Z,13.53
2019-04-23T11:58:45.744Z,13.57
2019-04-23T12:04:26.674Z,12.00
2019-04-23T12:07:00.327Z,14.73
2019-04-23T12:09:46.513Z,14.07
2019-04-23T12:12:10.409Z,14.73
2019-04-23T12:14:46.876Z,13.73
2019-04-23T12:17:29.452Z,12.27
2019-04-23T12:25:07.647Z,16.77
2019-04-23T12:27:31.330Z,15.30
2019-04-23T12:40:19.882Z,15.00
2019-04-23T12:47:56.403Z,13.70
2019-04-23T12:52:47.686Z,16.33
2019-04-23T12:55:21.668Z,15.60
2019-04-23T12:57:47.218Z,13.93
2019-04-23T13:00:24.137Z,14.50
2019-04-23T13:05:22.466Z,13.63
2019-04-23T13:08:10.604Z,13.10
2019-04-23T13:10:22.320Z,13.48
2019-04-23T13:15:22.609Z,14.70
2019-04-23T13:20:23.251Z,12.75
2019-04-23T13:22:54.889Z,12.63
2019-04-23T13:28:21.779Z,12.90
2019-04-23T13:36:03.170Z,12.75
2019-04-23T13:46:09.940Z,13.90
2019-04-23T13:48:34.441Z,14.58
2019-04-23T13:51:03.411Z,14.80
2019-04-23T13:53:37.145Z,15.53
2019-04-23T13:55:56.604Z,13.80
2019-04-23T13:58:22.657Z,15.70
2019-04-23T14:06:18.590Z,14.43
2019-04-23T14:08:47.452Z,13.60
2019-04-23T14:16:22.079Z,12.10
2019-04-23T14:21:20.376Z,11.63
2019-04-23T14:24:03.268Z,10.53
2019-04-23T14:31:23.379Z,13.20
2019-04-23T14:34:05.065Z,13.55
2019-04-23T14:39:06.122Z,10.50
2019-04-23T14:41:53.420Z,9.00
2019-04-23T14:44:19.857Z,10.20
2019-04-23T14:49:33.962Z,8.73
2019-04-23T14:52:02.474Z,9.48
2019-04-23T14:59:19.816Z,7.03
2019-04-23T15:02:04.665Z,8.53
2019-04-23T15:04:33.717Z,7.13
2019-04-23T15:09:34.175Z,9.20
2019-04-23T15:14:46.214Z,10.20
2019-04-23T15:17:12.766Z,11.17
2019-04-23T15:20:04.814Z,10.00
2019-04-23T15:25:15.198Z,10.33
2019-04-23T15:28:03.862Z,8.53
2019-04-23T15:29:51.149Z,10.98
2019-04-23T15:32:34.643Z,9.03
2019-04-23T15:35:05.134Z,10.30
2019-04-23T15:40:11.041Z,10.13
2019-04-23T15:42:29.538Z,10.27
2019-04-23T15:45:04.498Z,10.23
2019-04-23T15:47:36.042Z,9.10
2019-04-23T15:50:10.044Z,9.50
2019-04-23T15:52:37.523Z,8.73
2019-04-23T15:55:01.709Z,9.30
2019-04-23T15:57:53.987Z,9.30
2019-04-23T15:59:58.754Z,8.70
2019-04-23T16:02:05.539Z,9.33
2019-04-23T16:04:33.965Z,10.00
2019-04-23T16:07:02.490Z,9.30
2019-04-23T16:10:04.302Z,8.97
2019-04-23T16:12:27.782Z,10.03
2019-04-23T16:15:03.834Z,9.13
2019-04-23T16:17:35.139Z,8.23
2019-04-23T16:22:45.916Z,8.50
2019-04-23T16:25:17.424Z,8.07
2019-04-23T16:28:00.535Z,6.83
2019-04-23T16:33:08.794Z,6.60
2019-04-23T16:35:55.051Z,5.50
2019-04-23T16:38:26.726Z,8.37
2019-04-23T16:40:42.723Z,7.23
2019-04-23T16:43:15.943Z,7.33
2019-04-23T16:48:26.185Z,7.23
2019-04-23T16:51:08.568Z,7.27
2019-04-23T16:53:22.790Z,8.00
2019-04-23T16:58:28.094Z,7.53
2019-04-23T17:01:01.217Z,7.43
2019-04-23T17:05:59.516Z,7.00
2019-04-23T17:08:47.838Z,6.67
2019-04-23T17:13:25.583Z,7.83
2019-04-23T17:15:58.705Z,8.07
2019-04-23T17:18:25.921Z,7.20
2019-04-23T17:23:32.846Z,7.97
2019-04-23T17:31:18.418Z,9.60
2019-04-23T17:33:34.730Z,9.97
2019-04-23T17:41:32.821Z,11.80
2019-04-23T17:46:27.002Z,10.97
2019-04-23T17:48:55.161Z,11.33
2019-04-23T17:51:26.263Z,11.70
2019-04-23T17:54:06.560Z,11.47
2019-04-23T18:01:22.282Z,10.83
2019-04-23T18:06:37.638Z,12.33
2019-04-23T18:09:16.564Z,13.30
2019-04-23T18:11:35.722Z,14.00
2019-04-23T18:14:07.156Z,12.53
2019-04-23T18:16:51.941Z,12.07
2019-04-23T18:21:47.827Z,11.67
2019-04-23T18:24:27.687Z,12.30
2019-04-23T18:27:05.163Z,12.00
2019-04-23T18:33:22.055Z,12.53
2019-04-23T18:37:51.035Z,12.70
2019-04-23T18:40:14.536Z,14.63
2019-04-23T18:43:02.567Z,16.50
2019-04-23T18:45:23.008Z,12.83
2019-04-23T18:50:22.995Z,14.83
2019-04-23T18:55:29.860Z,14.87
2019-04-23T18:57:50.360Z,13.03
2019-04-23T19:00:24.858Z,12.77
2019-04-23T19:03:19.993Z,12.70
2019-04-23T19:05:45.600Z,13.43
2019-04-23T19:08:27.691Z,11.93
2019-04-23T19:11:14.547Z,12.87
2019-04-23T19:13:44.419Z,11.50
2019-04-23T19:16:16.555Z,10.53
2019-04-23T19:18:49.258Z,12.20
2019-04-23T19:21:31.463Z,12.20
2019-04-23T19:23:52.815Z,13.23
2019-04-23T19:26:32.379Z,11.70
2019-04-23T19:29:01.971Z,12.17
2019-04-23T19:34:30.290Z,12.45
2019-04-23T19:39:26.472Z,12.50
2019-04-23T19:42:06.898Z,10.17
2019-04-23T19:51:53.189Z,12.67
2019-04-23T19:56:55.142Z,12.63
2019-04-23T19:59:23.501Z,14.00
2019-04-23T20:01:55.356Z,11.27
2019-04-23T20:04:20.417Z,12.30
2019-04-23T20:09:37.332Z,12.07
2019-04-23T20:11:54.785Z,11.50
2019-04-23T20:14:24.111Z,13.00
2019-04-23T20:19:31.099Z,12.40
2019-04-23T20:24:30.172Z,13.00
2019-04-23T20:27:01.305Z,12.80
2019-04-23T20:37:05.660Z,12.20
2019-04-23T20:49:47.149Z,13.00
2019-04-23T20:52:08.867Z,14.37
2019-04-23T21:05:17.945Z,15.93
2019-04-23T21:07:54.264Z,14.57
2019-04-23T21:18:10.314Z,13.97
2019-04-23T21:22:55.894Z,14.77
2019-04-23T21:25:14.788Z,13.13
2019-04-23T21:28:17.197Z,12.63
2019-04-23T21:41:48.683Z,13.97
2019-04-23T21:46:41.305Z,15.57
2019-04-23T21:51:46.042Z,15.30
2019-04-23T21:54:02.142Z,17.95
2019-04-23T21:56:37.257Z,16.20
2019-04-23T21:59:13.371Z,16.23
2019-04-23T22:04:14.738Z,14.73
2019-04-23T22:06:43.436Z,14.43
2019-04-23T22:14:10.253Z,14.37
2019-04-23T22:17:42.689Z,14.90
2019-04-23T22:19:14.650Z,13.60
2019-04-23T22:24:07.251Z,14.97
2019-04-23T22:26:38.101Z,14.33
2019-04-23T22:29:19.153Z,15.07
2019-04-23T22:31:44.017Z,15.20
2019-04-23T22:36:51.920Z,14.67
2019-04-23T22:39:10.057Z,14.47
2019-04-23T22:44:17.979Z,13.83
2019-04-23T22:46:52.475Z,15.63
2019-04-23T22:49:28.686Z,15.50
2019-04-23T22:54:38.529Z,15.97
2019-04-23T22:56:56.614Z,14.43
2019-04-23T22:59:32.889Z,15.73
2019-04-23T23:02:07.427Z,14.20
2019-04-23T23:04:41.034Z,13.27
2019-04-23T23:07:22.375Z,14.27
2019-04-23T23:12:13.746Z,13.77
2019-04-23T23:14:41.883Z,13.67
2019-04-23T23:17:02.254Z,13.13
2019-04-23T23:22:11.930Z,14.43
2019-04-23T23:27:05.611Z,14.33
2019-04-23T23:29:54.801Z,14.30
2019-04-23T23:32:19.084Z,13.67
2019-04-23T23:34:48.558Z,14.33
2019-04-23T23:37:15.561Z,14.17
2019-04-23T23:42:09.702Z,14.93
2019-04-23T23:47:18.089Z,13.63
2019-04-23T23:49:46.243Z,15.30
2019-04-23T23:52:03.325Z,14.50
2019-04-23T23:54:46.329Z,14.50
